Merritt, North Carolina
Current Conditions -  °F | °C
As of 8:03 PM on Monday 24 Nov 2014 (Local Time) from KNBT Reporting Station
Few Clouds Few Clouds  
Wind Chill: 73°   Ceiling: Unl
Heat Index: 73°   Visibility: 7mi
Dew Point: 68°   Wind: 15mph
Humidity: 84%   Direction: 230°SW
Pressure: 29.93"   Gusts: 22mph
Location:  35.1°N, 76.71°W
Report Text: KNBT 250103Z AUTO 23013G19KT 7SM FEW011 FEW021 23/20 A2993 RMK AO2 T02280200 PNO
Loading
Personal Weather Stations






























Interactive Weather Map New forecast layout! Learn more

10-Day Weather Forecast

Advertisements
Track Severe Weather on mobile